sensor_id;sensor_type;location;lat;lon;timestamp;P1;durP1;ratioP1;P2;durP2;ratioP2
8542;SDS011;4309;42.658;23.380;2024-03-23T00:53:50;4.70;;;2.58;;
8542;SDS011;4309;42.658;23.380;2024-03-23T00:56:17;6.18;;;2.65;;
8542;SDS011;4309;42.658;23.380;2024-03-23T00:58:44;6.22;;;3.13;;
8542;SDS011;4309;42.658;23.380;2024-03-23T01:01:10;5.57;;;2.63;;
8542;SDS011;4309;42.658;23.380;2024-03-23T01:03:36;4.47;;;2.55;;
8542;SDS011;4309;42.658;23.380;2024-03-23T01:06:01;5.33;;;2.10;;
8542;SDS011;4309;42.658;23.380;2024-03-23T01:08:27;3.65;;;2.00;;
8542;SDS011;4309;42.658;23.380;2024-03-23T01:10:53;5.57;;;2.70;;
8542;SDS011;4309;42.658;23.380;2024-03-23T01:13:24;7.43;;;3.05;;
8542;SDS011;4309;42.658;23.380;2024-03-23T01:15:49;5.75;;;3.15;;
8542;SDS011;4309;42.658;23.380;2024-03-23T01:18:16;4.85;;;2.67;;
8542;SDS011;4309;42.658;23.380;2024-03-23T06:38:39;9.00;;;4.57;;
8542;SDS011;4309;42.658;23.380;2024-03-23T06:41:05;12.00;;;5.80;;
8542;SDS011;4309;42.658;23.380;2024-03-23T06:43:32;12.68;;;5.60;;
8542;SDS011;4309;42.658;23.380;2024-03-23T06:45:58;9.98;;;5.07;;
8542;SDS011;4309;42.658;23.380;2024-03-23T06:48:23;10.05;;;5.07;;
8542;SDS011;4309;42.658;23.380;2024-03-23T06:50:49;11.05;;;5.70;;
8542;SDS011;4309;42.658;23.380;2024-03-23T06:53:16;8.63;;;5.07;;
8542;SDS011;4309;42.658;23.380;2024-03-23T06:55:41;17.60;;;6.35;;
8542;SDS011;4309;42.658;23.380;2024-03-23T06:58:07;12.43;;;6.80;;
8542;SDS011;4309;42.658;23.380;2024-03-23T07:00:33;15.27;;;6.65;;
8542;SDS011;4309;42.658;23.380;2024-03-23T07:02:59;9.43;;;5.10;;
8542;SDS011;4309;42.658;23.380;2024-03-23T07:05:24;11.98;;;6.22;;
8542;SDS011;4309;42.658;23.380;2024-03-23T07:07:50;11.53;;;5.83;;
8542;SDS011;4309;42.658;23.380;2024-03-23T07:10:15;8.10;;;4.93;;
8542;SDS011;4309;42.658;23.380;2024-03-23T07:12:40;19.70;;;10.73;;
8542;SDS011;4309;42.658;23.380;2024-03-23T07:15:06;15.83;;;6.07;;
8542;SDS011;4309;42.658;23.380;2024-03-23T07:17:33;12.32;;;5.60;;
8542;SDS011;4309;42.658;23.380;2024-03-23T07:20:00;17.85;;;6.05;;
8542;SDS011;4309;42.658;23.380;2024-03-23T07:22:29;17.37;;;7.20;;
8542;SDS011;4309;42.658;23.380;2024-03-23T07:25:00;9.95;;;5.50;;
8542;SDS011;4309;42.658;23.380;2024-03-23T07:27:26;13.00;;;5.97;;
8542;SDS011;4309;42.658;23.380;2024-03-23T07:29:52;11.43;;;5.47;;
8542;SDS011;4309;42.658;23.380;2024-03-23T07:32:17;11.43;;;6.03;;
8542;SDS011;4309;42.658;23.380;2024-03-23T07:34:44;10.30;;;6.05;;
8542;SDS011;4309;42.658;23.380;2024-03-23T07:37:12;13.13;;;7.00;;
8542;SDS011;4309;42.658;23.380;2024-03-23T07:39:41;14.93;;;6.50;;
8542;SDS011;4309;42.658;23.380;2024-03-23T07:42:10;11.50;;;6.47;;
8542;SDS011;4309;42.658;23.380;2024-03-23T07:44:35;13.33;;;7.10;;
8542;SDS011;4309;42.658;23.380;2024-03-23T07:47:01;14.73;;;7.77;;
8542;SDS011;4309;42.658;23.380;2024-03-23T07:49:26;15.05;;;6.78;;
8542;SDS011;4309;42.658;23.380;2024-03-23T07:51:52;11.75;;;5.70;;
8542;SDS011;4309;42.658;23.380;2024-03-23T07:54:18;9.83;;;6.70;;
8542;SDS011;4309;42.658;23.380;2024-03-23T07:56:43;13.47;;;6.40;;
8542;SDS011;4309;42.658;23.380;2024-03-23T07:59:10;15.02;;;7.40;;
8542;SDS011;4309;42.658;23.380;2024-03-23T08:01:37;14.00;;;7.82;;
8542;SDS011;4309;42.658;23.380;2024-03-23T08:04:03;11.45;;;6.50;;
8542;SDS011;4309;42.658;23.380;2024-03-23T08:06:30;10.75;;;5.38;;
8542;SDS011;4309;42.658;23.380;2024-03-23T08:08:55;10.30;;;5.30;;
8542;SDS011;4309;42.658;23.380;2024-03-23T08:11:26;12.20;;;6.30;;
8542;SDS011;4309;42.658;23.380;2024-03-23T08:13:53;11.60;;;6.80;;
8542;SDS011;4309;42.658;23.380;2024-03-23T08:16:20;11.37;;;6.53;;
8542;SDS011;4309;42.658;23.380;2024-03-23T08:18:47;14.23;;;6.15;;
8542;SDS011;4309;42.658;23.380;2024-03-23T08:21:14;10.13;;;6.32;;
8542;SDS011;4309;42.658;23.380;2024-03-23T08:23:40;12.30;;;6.13;;
8542;SDS011;4309;42.658;23.380;2024-03-23T08:26:07;12.85;;;5.78;;
8542;SDS011;4309;42.658;23.380;2024-03-23T08:28:36;9.57;;;5.87;;
8542;SDS011;4309;42.658;23.380;2024-03-23T08:31:06;10.27;;;5.80;;
8542;SDS011;4309;42.658;23.380;2024-03-23T08:33:33;17.30;;;6.70;;
8542;SDS011;4309;42.658;23.380;2024-03-23T08:36:02;12.40;;;6.73;;
8542;SDS011;4309;42.658;23.380;2024-03-23T08:38:32;13.48;;;5.75;;
8542;SDS011;4309;42.658;23.380;2024-03-23T08:40:59;16.17;;;7.18;;
8542;SDS011;4309;42.658;23.380;2024-03-23T08:43:25;11.13;;;6.65;;
8542;SDS011;4309;42.658;23.380;2024-03-23T08:45:51;11.67;;;6.33;;
8542;SDS011;4309;42.658;23.380;2024-03-23T08:48:17;16.52;;;6.80;;
8542;SDS011;4309;42.658;23.380;2024-03-23T08:50:45;12.35;;;6.32;;
8542;SDS011;4309;42.658;23.380;2024-03-23T08:53:11;11.27;;;6.47;;
8542;SDS011;4309;42.658;23.380;2024-03-23T08:55:36;10.70;;;5.70;;
8542;SDS011;4309;42.658;23.380;2024-03-23T08:58:01;12.45;;;5.53;;
8542;SDS011;4309;42.658;23.380;2024-03-23T09:00:27;13.87;;;5.60;;
8542;SDS011;4309;42.658;23.380;2024-03-23T09:02:52;9.43;;;5.50;;
8542;SDS011;4309;42.658;23.380;2024-03-23T09:05:18;10.15;;;5.63;;
8542;SDS011;4309;42.658;23.380;2024-03-23T09:07:44;11.00;;;6.33;;
8542;SDS011;4309;42.658;23.380;2024-03-23T09:10:09;11.13;;;5.80;;
8542;SDS011;4309;42.658;23.380;2024-03-23T09:12:34;13.60;;;6.57;;
8542;SDS011;4309;42.658;23.380;2024-03-23T09:15:00;10.47;;;6.10;;
8542;SDS011;4309;42.658;23.380;2024-03-23T09:17:25;11.95;;;5.75;;
8542;SDS011;4309;42.658;23.380;2024-03-23T09:19:51;16.07;;;6.37;;
8542;SDS011;4309;42.658;23.380;2024-03-23T09:22:16;11.20;;;6.03;;
8542;SDS011;4309;42.658;23.380;2024-03-23T09:24:41;12.60;;;5.70;;
8542;SDS011;4309;42.658;23.380;2024-03-23T09:27:07;19.80;;;10.17;;
8542;SDS011;4309;42.658;23.380;2024-03-23T09:29:33;11.55;;;5.82;;
8542;SDS011;4309;42.658;23.380;2024-03-23T09:31:58;13.30;;;6.17;;
8542;SDS011;4309;42.658;23.380;2024-03-23T09:34:23;7.90;;;5.13;;
8542;SDS011;4309;42.658;23.380;2024-03-23T09:36:52;9.53;;;5.37;;
8542;SDS011;4309;42.658;23.380;2024-03-23T09:39:17;9.18;;;4.60;;
8542;SDS011;4309;42.658;23.380;2024-03-23T09:41:44;10.07;;;5.38;;
8542;SDS011;4309;42.658;23.380;2024-03-23T09:44:10;10.27;;;5.38;;
8542;SDS011;4309;42.658;23.380;2024-03-23T09:46:35;11.47;;;5.40;;
8542;SDS011;4309;42.658;23.380;2024-03-23T09:49:01;10.25;;;5.38;;
8542;SDS011;4309;42.658;23.380;2024-03-23T09:51:29;10.17;;;5.07;;
8542;SDS011;4309;42.658;23.380;2024-03-23T09:53:55;8.77;;;4.72;;
8542;SDS011;4309;42.658;23.380;2024-03-23T09:56:22;8.45;;;5.07;;
8542;SDS011;4309;42.658;23.380;2024-03-23T09:58:48;15.93;;;5.60;;
8542;SDS011;4309;42.658;23.380;2024-03-23T10:01:14;11.07;;;5.57;;
8542;SDS011;4309;42.658;23.380;2024-03-23T10:03:43;12.45;;;5.47;;
8542;SDS011;4309;42.658;23.380;2024-03-23T10:06:09;10.07;;;4.82;;
8542;SDS011;4309;42.658;23.380;2024-03-23T10:08:35;10.40;;;4.83;;
8542;SDS011;4309;42.658;23.380;2024-03-23T10:11:12;11.53;;;5.73;;
8542;SDS011;4309;42.658;23.380;2024-03-23T10:13:38;7.45;;;4.68;;
8542;SDS011;4309;42.658;23.380;2024-03-23T10:16:07;8.48;;;4.90;;
8542;SDS011;4309;42.658;23.380;2024-03-23T10:18:32;7.13;;;4.57;;
8542;SDS011;4309;42.658;23.380;2024-03-23T10:23:31;7.32;;;4.57;;
8542;SDS011;4309;42.658;23.380;2024-03-23T10:28:59;11.43;;;6.93;;
8542;SDS011;4309;42.658;23.380;2024-03-23T10:31:30;8.65;;;4.50;;
8542;SDS011;4309;42.658;23.380;2024-03-23T10:33:56;9.38;;;4.95;;
8542;SDS011;4309;42.658;23.380;2024-03-23T10:36:22;12.82;;;4.38;;
8542;SDS011;4309;42.658;23.380;2024-03-23T10:38:52;12.52;;;5.07;;
8542;SDS011;4309;42.658;23.380;2024-03-23T10:41:19;10.57;;;4.57;;
8542;SDS011;4309;42.658;23.380;2024-03-23T10:43:47;9.00;;;5.50;;
8542;SDS011;4309;42.658;23.380;2024-03-23T10:46:14;8.70;;;4.87;;
8542;SDS011;4309;42.658;23.380;2024-03-23T10:48:40;10.63;;;4.95;;
8542;SDS011;4309;42.658;23.380;2024-03-23T10:51:06;11.13;;;5.90;;
8542;SDS011;4309;42.658;23.380;2024-03-23T10:53:33;9.50;;;5.53;;
8542;SDS011;4309;42.658;23.380;2024-03-23T10:55:59;14.10;;;5.95;;
8542;SDS011;4309;42.658;23.380;2024-03-23T10:58:46;10.93;;;4.87;;
8542;SDS011;4309;42.658;23.380;2024-03-23T11:01:13;11.05;;;5.72;;
8542;SDS011;4309;42.658;23.380;2024-03-23T11:03:39;11.75;;;6.53;;
8542;SDS011;4309;42.658;23.380;2024-03-23T11:06:09;14.77;;;5.00;;
8542;SDS011;4309;42.658;23.380;2024-03-23T11:08:39;9.80;;;5.93;;
8542;SDS011;4309;42.658;23.380;2024-03-23T11:13:38;11.25;;;6.18;;
8542;SDS011;4309;42.658;23.380;2024-03-23T11:22:04;11.30;;;5.18;;
8542;SDS011;4309;42.658;23.380;2024-03-23T11:24:30;10.27;;;4.83;;
8542;SDS011;4309;42.658;23.380;2024-03-23T11:26:56;8.75;;;4.90;;
8542;SDS011;4309;42.658;23.380;2024-03-23T11:29:25;9.02;;;4.60;;
8542;SDS011;4309;42.658;23.380;2024-03-23T11:31:51;9.87;;;4.40;;
8542;SDS011;4309;42.658;23.380;2024-03-23T11:34:17;8.75;;;4.90;;
8542;SDS011;4309;42.658;23.380;2024-03-23T11:36:43;9.27;;;4.78;;
8542;SDS011;4309;42.658;23.380;2024-03-23T11:39:19;10.47;;;5.00;;
8542;SDS011;4309;42.658;23.380;2024-03-23T11:44:17;12.63;;;6.65;;
8542;SDS011;4309;42.658;23.380;2024-03-23T11:46:47;9.30;;;5.20;;
8542;SDS011;4309;42.658;23.380;2024-03-23T11:49:22;12.27;;;7.23;;
8542;SDS011;4309;42.658;23.380;2024-03-23T11:51:48;11.10;;;6.40;;
8542;SDS011;4309;42.658;23.380;2024-03-23T11:54:13;8.00;;;5.00;;
8542;SDS011;4309;42.658;23.380;2024-03-23T11:56:39;8.37;;;5.30;;
8542;SDS011;4309;42.658;23.380;2024-03-23T11:59:04;9.55;;;5.07;;
8542;SDS011;4309;42.658;23.380;2024-03-23T12:01:29;10.10;;;4.87;;
8542;SDS011;4309;42.658;23.380;2024-03-23T12:03:56;9.05;;;5.05;;
8542;SDS011;4309;42.658;23.380;2024-03-23T12:06:21;9.87;;;4.70;;
8542;SDS011;4309;42.658;23.380;2024-03-23T12:08:47;8.97;;;5.20;;
8542;SDS011;4309;42.658;23.380;2024-03-23T12:11:13;11.43;;;4.20;;
8542;SDS011;4309;42.658;23.380;2024-03-23T12:13:41;8.57;;;4.63;;
8542;SDS011;4309;42.658;23.380;2024-03-23T12:18:42;9.95;;;5.32;;
8542;SDS011;4309;42.658;23.380;2024-03-23T12:21:09;8.02;;;4.10;;
8542;SDS011;4309;42.658;23.380;2024-03-23T12:23:35;10.03;;;4.03;;
8542;SDS011;4309;42.658;23.380;2024-03-23T12:26:01;8.93;;;4.55;;
8542;SDS011;4309;42.658;23.380;2024-03-23T12:28:26;10.17;;;4.13;;
8542;SDS011;4309;42.658;23.380;2024-03-23T12:30:52;10.65;;;4.90;;
8542;SDS011;4309;42.658;23.380;2024-03-23T12:33:19;8.33;;;4.43;;
8542;SDS011;4309;42.658;23.380;2024-03-23T12:35:44;10.45;;;4.38;;
8542;SDS011;4309;42.658;23.380;2024-03-23T12:38:10;9.27;;;4.57;;
8542;SDS011;4309;42.658;23.380;2024-03-23T12:40:35;8.37;;;4.77;;
8542;SDS011;4309;42.658;23.380;2024-03-23T12:43:00;9.23;;;4.53;;
8542;SDS011;4309;42.658;23.380;2024-03-23T12:45:26;10.60;;;4.47;;
8542;SDS011;4309;42.658;23.380;2024-03-23T12:47:52;8.43;;;5.07;;
8542;SDS011;4309;42.658;23.380;2024-03-23T12:50:18;8.35;;;4.43;;
8542;SDS011;4309;42.658;23.380;2024-03-23T12:52:44;7.00;;;3.77;;
8542;SDS011;4309;42.658;23.380;2024-03-23T12:55:09;11.93;;;4.07;;
8542;SDS011;4309;42.658;23.380;2024-03-23T12:57:35;8.73;;;3.90;;
8542;SDS011;4309;42.658;23.380;2024-03-23T13:00:01;6.90;;;3.33;;
8542;SDS011;4309;42.658;23.380;2024-03-23T13:02:28;8.93;;;4.00;;
8542;SDS011;4309;42.658;23.380;2024-03-23T13:04:53;6.67;;;3.70;;
8542;SDS011;4309;42.658;23.380;2024-03-23T13:07:19;6.23;;;3.87;;
8542;SDS011;4309;42.658;23.380;2024-03-23T13:09:46;7.60;;;3.92;;
8542;SDS011;4309;42.658;23.380;2024-03-23T13:12:12;6.32;;;3.17;;
8542;SDS011;4309;42.658;23.380;2024-03-23T13:14:38;5.07;;;2.53;;
8542;SDS011;4309;42.658;23.380;2024-03-23T13:17:04;5.07;;;3.08;;
8542;SDS011;4309;42.658;23.380;2024-03-23T13:19:30;5.30;;;2.88;;
8542;SDS011;4309;42.658;23.380;2024-03-23T13:21:59;7.10;;;2.83;;
8542;SDS011;4309;42.658;23.380;2024-03-23T13:24:26;4.35;;;2.55;;
8542;SDS011;4309;42.658;23.380;2024-03-23T13:26:57;5.40;;;2.35;;
8542;SDS011;4309;42.658;23.380;2024-03-23T13:29:23;7.53;;;2.10;;
8542;SDS011;4309;42.658;23.380;2024-03-23T13:31:52;4.23;;;2.20;;
8542;SDS011;4309;42.658;23.380;2024-03-23T13:34:19;5.20;;;2.65;;
8542;SDS011;4309;42.658;23.380;2024-03-23T13:36:46;5.80;;;2.42;;
8542;SDS011;4309;42.658;23.380;2024-03-23T13:39:14;4.93;;;2.42;;
8542;SDS011;4309;42.658;23.380;2024-03-23T13:41:44;3.85;;;1.95;;
8542;SDS011;4309;42.658;23.380;2024-03-23T13:44:12;4.57;;;1.70;;
8542;SDS011;4309;42.658;23.380;2024-03-23T13:46:39;5.57;;;1.67;;
8542;SDS011;4309;42.658;23.380;2024-03-23T13:49:07;5.82;;;2.10;;
8542;SDS011;4309;42.658;23.380;2024-03-23T13:51:46;5.20;;;2.58;;
8542;SDS011;4309;42.658;23.380;2024-03-23T13:54:13;5.72;;;3.20;;
8542;SDS011;4309;42.658;23.380;2024-03-23T13:56:39;5.97;;;3.10;;
8542;SDS011;4309;42.658;23.380;2024-03-23T13:59:06;5.43;;;3.00;;
8542;SDS011;4309;42.658;23.380;2024-03-23T14:01:33;5.82;;;3.20;;
8542;SDS011;4309;42.658;23.380;2024-03-23T14:03:59;5.75;;;2.67;;
8542;SDS011;4309;42.658;23.380;2024-03-23T14:06:26;4.65;;;2.55;;
8542;SDS011;4309;42.658;23.380;2024-03-23T14:08:53;4.47;;;1.97;;
8542;SDS011;4309;42.658;23.380;2024-03-23T14:11:19;4.20;;;2.45;;
8542;SDS011;4309;42.658;23.380;2024-03-23T14:13:46;3.78;;;2.05;;
8542;SDS011;4309;42.658;23.380;2024-03-23T14:16:13;4.60;;;2.20;;
8542;SDS011;4309;42.658;23.380;2024-03-23T14:18:39;4.30;;;1.80;;
8542;SDS011;4309;42.658;23.380;2024-03-23T14:21:05;4.67;;;1.83;;
8542;SDS011;4309;42.658;23.380;2024-03-23T14:23:33;3.30;;;1.65;;
8542;SDS011;4309;42.658;23.380;2024-03-23T14:26:00;4.53;;;2.45;;
8542;SDS011;4309;42.658;23.380;2024-03-23T14:28:27;5.75;;;2.10;;
8542;SDS011;4309;42.658;23.380;2024-03-23T14:30:55;4.15;;;2.15;;
8542;SDS011;4309;42.658;23.380;2024-03-23T14:33:22;3.77;;;1.80;;
8542;SDS011;4309;42.658;23.380;2024-03-23T14:35:54;4.90;;;1.95;;
8542;SDS011;4309;42.658;23.380;2024-03-23T14:38:25;4.13;;;1.80;;
8542;SDS011;4309;42.658;23.380;2024-03-23T14:40:52;3.22;;;1.70;;
8542;SDS011;4309;42.658;23.380;2024-03-23T14:43:19;3.30;;;1.80;;
8542;SDS011;4309;42.658;23.380;2024-03-23T14:48:41;3.65;;;1.35;;
8542;SDS011;4309;42.658;23.380;2024-03-23T14:51:10;2.47;;;1.08;;
8542;SDS011;4309;42.658;23.380;2024-03-23T14:53:38;2.85;;;1.00;;
8542;SDS011;4309;42.658;23.380;2024-03-23T14:56:05;2.88;;;1.50;;
8542;SDS011;4309;42.658;23.380;2024-03-23T14:58:33;2.93;;;1.50;;
8542;SDS011;4309;42.658;23.380;2024-03-23T15:01:07;3.78;;;1.42;;
8542;SDS011;4309;42.658;23.380;2024-03-23T15:03:38;3.22;;;1.20;;
8542;SDS011;4309;42.658;23.380;2024-03-23T15:06:04;4.07;;;1.42;;
8542;SDS011;4309;42.658;23.380;2024-03-23T15:08:36;3.45;;;1.50;;
8542;SDS011;4309;42.658;23.380;2024-03-23T15:11:04;2.83;;;1.50;;
8542;SDS011;4309;42.658;23.380;2024-03-23T15:13:37;2.92;;;1.52;;
8542;SDS011;4309;42.658;23.380;2024-03-23T15:16:04;3.17;;;1.88;;
8542;SDS011;4309;42.658;23.380;2024-03-23T15:18:31;2.90;;;1.55;;
8542;SDS011;4309;42.658;23.380;2024-03-23T15:20:58;3.67;;;1.30;;
8542;SDS011;4309;42.658;23.380;2024-03-23T15:23:27;3.27;;;1.33;;
8542;SDS011;4309;42.658;23.380;2024-03-23T15:25:54;3.42;;;1.60;;
8542;SDS011;4309;42.658;23.380;2024-03-23T15:28:20;7.50;;;1.70;;
8542;SDS011;4309;42.658;23.380;2024-03-23T15:30:45;3.17;;;1.57;;
8542;SDS011;4309;42.658;23.380;2024-03-23T15:33:10;3.53;;;1.77;;
8542;SDS011;4309;42.658;23.380;2024-03-23T15:35:36;3.40;;;1.58;;
8542;SDS011;4309;42.658;23.380;2024-03-23T15:38:02;3.70;;;1.83;;
8542;SDS011;4309;42.658;23.380;2024-03-23T15:40:28;3.55;;;1.30;;
8542;SDS011;4309;42.658;23.380;2024-03-23T15:42:54;3.30;;;1.40;;
8542;SDS011;4309;42.658;23.380;2024-03-23T15:45:19;3.40;;;1.42;;
8542;SDS011;4309;42.658;23.380;2024-03-23T15:47:45;2.63;;;1.20;;
8542;SDS011;4309;42.658;23.380;2024-03-23T15:50:10;2.73;;;1.53;;
8542;SDS011;4309;42.658;23.380;2024-03-23T15:52:36;4.47;;;1.83;;
8542;SDS011;4309;42.658;23.380;2024-03-23T15:55:02;3.50;;;1.42;;
8542;SDS011;4309;42.658;23.380;2024-03-23T15:57:31;3.78;;;1.52;;
8542;SDS011;4309;42.658;23.380;2024-03-23T16:00:03;4.60;;;1.75;;
8542;SDS011;4309;42.658;23.380;2024-03-23T16:02:29;3.60;;;1.20;;
8542;SDS011;4309;42.658;23.380;2024-03-23T16:04:54;3.20;;;1.17;;
8542;SDS011;4309;42.658;23.380;2024-03-23T16:07:21;3.27;;;1.50;;
8542;SDS011;4309;42.658;23.380;2024-03-23T16:09:47;3.28;;;1.45;;
8542;SDS011;4309;42.658;23.380;2024-03-23T16:12:12;3.43;;;1.90;;
8542;SDS011;4309;42.658;23.380;2024-03-23T16:14:38;3.90;;;1.60;;
8542;SDS011;4309;42.658;23.380;2024-03-23T16:17:03;5.70;;;2.17;;
8542;SDS011;4309;42.658;23.380;2024-03-23T16:19:29;3.67;;;1.63;;
8542;SDS011;4309;42.658;23.380;2024-03-23T16:21:54;4.40;;;2.13;;
8542;SDS011;4309;42.658;23.380;2024-03-23T16:24:20;3.63;;;1.92;;
8542;SDS011;4309;42.658;23.380;2024-03-23T16:26:46;5.27;;;2.03;;
8542;SDS011;4309;42.658;23.380;2024-03-23T16:29:11;5.00;;;2.30;;
8542;SDS011;4309;42.658;23.380;2024-03-23T16:31:37;4.90;;;2.70;;
8542;SDS011;4309;42.658;23.380;2024-03-23T16:34:02;7.07;;;2.80;;
8542;SDS011;4309;42.658;23.380;2024-03-23T16:36:27;7.13;;;2.27;;
8542;SDS011;4309;42.658;23.380;2024-03-23T16:38:53;5.50;;;2.10;;
8542;SDS011;4309;42.658;23.380;2024-03-23T16:41:19;7.65;;;2.78;;
8542;SDS011;4309;42.658;23.380;2024-03-23T16:43:44;4.50;;;2.77;;
8542;SDS011;4309;42.658;23.380;2024-03-23T16:46:14;4.30;;;2.22;;
8542;SDS011;4309;42.658;23.380;2024-03-23T16:48:41;6.30;;;2.70;;
8542;SDS011;4309;42.658;23.380;2024-03-23T16:51:08;6.53;;;2.58;;
8542;SDS011;4309;42.658;23.380;2024-03-23T16:53:34;6.10;;;2.23;;
8542;SDS011;4309;42.658;23.380;2024-03-23T16:56:01;7.10;;;3.58;;
8542;SDS011;4309;42.658;23.380;2024-03-23T16:58:32;6.32;;;3.47;;
8542;SDS011;4309;42.658;23.380;2024-03-23T17:01:08;6.22;;;2.70;;
8542;SDS011;4309;42.658;23.380;2024-03-23T17:03:43;7.03;;;2.88;;
8542;SDS011;4309;42.658;23.380;2024-03-23T17:06:10;5.73;;;2.63;;
8542;SDS011;4309;42.658;23.380;2024-03-23T17:08:39;8.18;;;3.17;;
8542;SDS011;4309;42.658;23.380;2024-03-23T17:11:05;8.55;;;2.60;;
8542;SDS011;4309;42.658;23.380;2024-03-23T17:13:30;5.10;;;2.67;;
8542;SDS011;4309;42.658;23.380;2024-03-23T17:15:56;6.43;;;3.33;;
8542;SDS011;4309;42.658;23.380;2024-03-23T17:18:22;8.50;;;3.10;;
8542;SDS011;4309;42.658;23.380;2024-03-23T17:20:47;6.97;;;3.10;;
8542;SDS011;4309;42.658;23.380;2024-03-23T17:23:13;7.80;;;3.80;;
8542;SDS011;4309;42.658;23.380;2024-03-23T17:25:38;6.83;;;3.33;;
8542;SDS011;4309;42.658;23.380;2024-03-23T17:28:04;6.70;;;3.70;;
8542;SDS011;4309;42.658;23.380;2024-03-23T17:30:31;8.03;;;3.87;;
8542;SDS011;4309;42.658;23.380;2024-03-23T17:32:56;6.23;;;3.23;;
8542;SDS011;4309;42.658;23.380;2024-03-23T17:35:22;7.57;;;3.43;;
8542;SDS011;4309;42.658;23.380;2024-03-23T17:37:47;9.57;;;5.10;;
8542;SDS011;4309;42.658;23.380;2024-03-23T17:40:14;7.93;;;4.05;;
8542;SDS011;4309;42.658;23.380;2024-03-23T17:42:40;8.23;;;3.77;;
8542;SDS011;4309;42.658;23.380;2024-03-23T17:45:06;6.72;;;3.47;;
8542;SDS011;4309;42.658;23.380;2024-03-23T17:47:36;8.40;;;3.50;;
8542;SDS011;4309;42.658;23.380;2024-03-23T17:50:03;8.38;;;4.03;;
8542;SDS011;4309;42.658;23.380;2024-03-23T17:52:29;7.45;;;3.72;;
8542;SDS011;4309;42.658;23.380;2024-03-23T17:54:55;7.90;;;3.40;;
8542;SDS011;4309;42.658;23.380;2024-03-23T17:57:20;10.95;;;3.90;;
8542;SDS011;4309;42.658;23.380;2024-03-23T17:59:46;8.07;;;3.77;;
8542;SDS011;4309;42.658;23.380;2024-03-23T18:02:11;7.37;;;4.33;;
8542;SDS011;4309;42.658;23.380;2024-03-23T18:04:37;17.10;;;8.83;;
8542;SDS011;4309;42.658;23.380;2024-03-23T18:07:02;10.88;;;4.57;;
8542;SDS011;4309;42.658;23.380;2024-03-23T18:09:28;10.70;;;3.30;;
8542;SDS011;4309;42.658;23.380;2024-03-23T18:11:53;4.43;;;2.60;;
8542;SDS011;4309;42.658;23.380;2024-03-23T18:14:19;11.65;;;3.50;;
8542;SDS011;4309;42.658;23.380;2024-03-23T18:16:44;10.10;;;3.80;;
8542;SDS011;4309;42.658;23.380;2024-03-23T18:19:09;7.43;;;4.13;;
8542;SDS011;4309;42.658;23.380;2024-03-23T18:21:35;11.80;;;4.13;;
8542;SDS011;4309;42.658;23.380;2024-03-23T18:24:00;8.20;;;3.37;;
8542;SDS011;4309;42.658;23.380;2024-03-23T18:26:26;6.50;;;3.37;;
8542;SDS011;4309;42.658;23.380;2024-03-23T18:28:51;10.38;;;3.92;;
8542;SDS011;4309;42.658;23.380;2024-03-23T18:31:17;7.15;;;3.95;;
8542;SDS011;4309;42.658;23.380;2024-03-23T18:33:43;7.95;;;3.60;;
8542;SDS011;4309;42.658;23.380;2024-03-23T18:36:08;11.00;;;3.57;;
8542;SDS011;4309;42.658;23.380;2024-03-23T18:38:35;8.52;;;3.75;;
8542;SDS011;4309;42.658;23.380;2024-03-23T18:41:01;8.20;;;4.33;;
8542;SDS011;4309;42.658;23.380;2024-03-23T18:43:26;7.93;;;3.70;;
8542;SDS011;4309;42.658;23.380;2024-03-23T18:45:52;11.13;;;4.43;;
8542;SDS011;4309;42.658;23.380;2024-03-23T18:48:18;4.23;;;1.80;;
8542;SDS011;4309;42.658;23.380;2024-03-23T18:50:44;10.07;;;4.57;;
8542;SDS011;4309;42.658;23.380;2024-03-23T18:53:10;11.27;;;4.43;;
8542;SDS011;4309;42.658;23.380;2024-03-23T18:55:39;13.57;;;6.32;;
8542;SDS011;4309;42.658;23.380;2024-03-23T18:58:05;14.85;;;5.22;;
8542;SDS011;4309;42.658;23.380;2024-03-23T19:00:31;13.73;;;4.93;;
8542;SDS011;4309;42.658;23.380;2024-03-23T19:02:57;10.30;;;4.78;;
8542;SDS011;4309;42.658;23.380;2024-03-23T19:05:25;9.00;;;4.53;;
8542;SDS011;4309;42.658;23.380;2024-03-23T19:07:51;10.13;;;4.38;;
8542;SDS011;4309;42.658;23.380;2024-03-23T19:10:17;9.50;;;4.70;;
8542;SDS011;4309;42.658;23.380;2024-03-23T19:12:45;8.77;;;4.60;;
8542;SDS011;4309;42.658;23.380;2024-03-23T19:15:11;10.67;;;4.17;;
8542;SDS011;4309;42.658;23.380;2024-03-23T19:17:37;11.05;;;4.10;;
8542;SDS011;4309;42.658;23.380;2024-03-23T19:20:02;7.05;;;3.63;;
8542;SDS011;4309;42.658;23.380;2024-03-23T19:22:31;9.55;;;4.18;;
8542;SDS011;4309;42.658;23.380;2024-03-23T19:24:57;6.43;;;3.00;;
8542;SDS011;4309;42.658;23.380;2024-03-23T19:27:24;7.50;;;3.42;;
8542;SDS011;4309;42.658;23.380;2024-03-23T19:29:50;7.67;;;4.00;;
8542;SDS011;4309;42.658;23.380;2024-03-23T19:32:16;10.07;;;4.22;;
8542;SDS011;4309;42.658;23.380;2024-03-23T19:34:41;8.50;;;3.90;;
8542;SDS011;4309;42.658;23.380;2024-03-23T19:37:07;10.60;;;4.15;;
8542;SDS011;4309;42.658;23.380;2024-03-23T19:39:32;12.83;;;4.10;;
8542;SDS011;4309;42.658;23.380;2024-03-23T19:41:58;8.93;;;4.30;;
8542;SDS011;4309;42.658;23.380;2024-03-23T19:44:24;8.65;;;4.57;;
8542;SDS011;4309;42.658;23.380;2024-03-23T19:46:49;14.87;;;6.47;;
8542;SDS011;4309;42.658;23.380;2024-03-23T19:49:15;9.80;;;3.95;;
8542;SDS011;4309;42.658;23.380;2024-03-23T19:51:40;7.90;;;4.00;;
8542;SDS011;4309;42.658;23.380;2024-03-23T19:54:07;8.73;;;4.45;;
8542;SDS011;4309;42.658;23.380;2024-03-23T19:56:33;11.50;;;3.80;;
8542;SDS011;4309;42.658;23.380;2024-03-23T19:58:58;8.80;;;3.92;;
8542;SDS011;4309;42.658;23.380;2024-03-23T20:01:24;8.60;;;3.70;;
8542;SDS011;4309;42.658;23.380;2024-03-23T20:03:49;11.03;;;3.70;;
8542;SDS011;4309;42.658;23.380;2024-03-23T20:06:15;16.48;;;6.20;;
8542;SDS011;4309;42.658;23.380;2024-03-23T20:08:41;12.97;;;5.00;;
8542;SDS011;4309;42.658;23.380;2024-03-23T20:11:07;13.82;;;5.10;;
8542;SDS011;4309;42.658;23.380;2024-03-23T20:13:33;15.63;;;5.70;;
8542;SDS011;4309;42.658;23.380;2024-03-23T20:15:59;9.13;;;4.63;;
8542;SDS011;4309;42.658;23.380;2024-03-23T20:18:27;9.57;;;4.43;;
8542;SDS011;4309;42.658;23.380;2024-03-23T20:20:55;8.65;;;4.18;;
8542;SDS011;4309;42.658;23.380;2024-03-23T20:23:27;11.18;;;5.07;;
8542;SDS011;4309;42.658;23.380;2024-03-23T20:28:18;8.47;;;4.63;;
8542;SDS011;4309;42.658;23.380;2024-03-23T20:30:44;12.23;;;3.85;;
8542;SDS011;4309;42.658;23.380;2024-03-23T20:33:14;10.45;;;4.50;;
8542;SDS011;4309;42.658;23.380;2024-03-23T20:35:48;9.33;;;4.47;;
8542;SDS011;4309;42.658;23.380;2024-03-23T20:38:15;10.95;;;4.85;;
8542;SDS011;4309;42.658;23.380;2024-03-23T20:40:41;10.43;;;4.68;;
8542;SDS011;4309;42.658;23.380;2024-03-23T20:43:07;10.57;;;4.87;;
8542;SDS011;4309;42.658;23.380;2024-03-23T20:45:34;9.25;;;5.22;;
8542;SDS011;4309;42.658;23.380;2024-03-23T20:47:59;11.73;;;4.53;;
8542;SDS011;4309;42.658;23.380;2024-03-23T20:50:25;12.18;;;4.57;;
8542;SDS011;4309;42.658;23.380;2024-03-23T20:52:50;14.17;;;4.63;;
8542;SDS011;4309;42.658;23.380;2024-03-23T20:55:16;9.33;;;4.63;;
8542;SDS011;4309;42.658;23.380;2024-03-23T20:57:41;8.93;;;4.45;;
8542;SDS011;4309;42.658;23.380;2024-03-23T21:00:07;10.53;;;4.63;;
8542;SDS011;4309;42.658;23.380;2024-03-23T21:02:33;10.40;;;4.63;;
8542;SDS011;4309;42.658;23.380;2024-03-23T21:04:59;9.10;;;4.95;;
8542;SDS011;4309;42.658;23.380;2024-03-23T21:07:26;8.57;;;4.35;;
8542;SDS011;4309;42.658;23.380;2024-03-23T21:09:52;12.50;;;4.72;;
8542;SDS011;4309;42.658;23.380;2024-03-23T21:12:18;10.90;;;4.40;;
8542;SDS011;4309;42.658;23.380;2024-03-23T21:14:43;8.83;;;4.27;;
8542;SDS011;4309;42.658;23.380;2024-03-23T21:17:09;12.60;;;5.07;;
8542;SDS011;4309;42.658;23.380;2024-03-23T21:19:34;8.77;;;5.07;;
8542;SDS011;4309;42.658;23.380;2024-03-23T21:21:59;8.50;;;4.07;;
8542;SDS011;4309;42.658;23.380;2024-03-23T21:24:25;9.03;;;5.03;;
8542;SDS011;4309;42.658;23.380;2024-03-23T21:26:50;9.32;;;4.68;;